sensor_id;sensor_type;location;lat;lon;timestamp;pressure;altitude;pressure_sealevel;temperature;humidity
53932;BME280;39844;52.496;13.482;2023-06-26T00:01:36;101343.13;;;20.16;100.00
53932;BME280;39844;52.496;13.482;2023-06-26T00:04:01;101341.50;;;20.12;100.00
53932;BME280;39844;52.496;13.482;2023-06-26T00:06:27;101337.06;;;20.11;100.00
53932;BME280;39844;52.496;13.482;2023-06-26T00:08:53;101345.19;;;20.08;100.00
53932;BME280;39844;52.496;13.482;2023-06-26T00:11:20;101344.41;;;20.05;100.00
53932;BME280;39844;52.496;13.482;2023-06-26T00:13:45;101341.78;;;20.03;100.00
53932;BME280;39844;52.496;13.482;2023-06-26T00:16:10;101340.97;;;20.01;100.00
53932;BME280;39844;52.496;13.482;2023-06-26T00:18:36;101339.25;;;19.99;100.00
53932;BME280;39844;52.496;13.482;2023-06-26T00:21:01;101332.31;;;19.95;100.00
53932;BME280;39844;52.496;13.482;2023-06-26T00:23:26;101330.63;;;19.92;100.00
53932;BME280;39844;52.496;13.482;2023-06-26T00:25:51;101332.47;;;19.90;100.00
53932;BME280;39844;52.496;13.482;2023-06-26T00:28:17;101331.63;;;19.88;100.00
53932;BME280;39844;52.496;13.482;2023-06-26T00:30:42;101336.13;;;19.86;100.00
53932;BME280;39844;52.496;13.482;2023-06-26T00:33:07;101337.09;;;19.84;100.00
53932;BME280;39844;52.496;13.482;2023-06-26T00:35:33;101331.78;;;19.84;100.00
53932;BME280;39844;52.496;13.482;2023-06-26T00:37:58;101331.03;;;19.80;100.00
53932;BME280;39844;52.496;13.482;2023-06-26T00:40:23;101330.16;;;19.78;100.00
53932;BME280;39844;52.496;13.482;2023-06-26T00:42:49;101315.13;;;19.77;100.00
53932;BME280;39844;52.496;13.482;2023-06-26T00:45:15;101324.97;;;19.75;100.00
53932;BME280;39844;52.496;13.482;2023-06-26T00:47:40;101327.72;;;19.72;100.00
53932;BME280;39844;52.496;13.482;2023-06-26T00:50:06;101324.25;;;19.70;100.00
53932;BME280;39844;52.496;13.482;2023-06-26T00:52:32;101331.38;;;19.68;100.00
53932;BME280;39844;52.496;13.482;2023-06-26T00:54:57;101319.81;;;19.69;100.00
53932;BME280;39844;52.496;13.482;2023-06-26T00:57:23;101323.38;;;19.70;100.00
53932;BME280;39844;52.496;13.482;2023-06-26T00:59:48;101313.63;;;19.69;100.00
53932;BME280;39844;52.496;13.482;2023-06-26T01:02:14;101312.66;;;19.71;100.00
53932;BME280;39844;52.496;13.482;2023-06-26T01:04:39;101311.78;;;19.71;100.00
53932;BME280;39844;52.496;13.482;2023-06-26T01:07:05;101311.78;;;19.71;100.00
53932;BME280;39844;52.496;13.482;2023-06-26T01:09:30;101312.72;;;19.70;100.00
53932;BME280;39844;52.496;13.482;2023-06-26T01:11:56;101310.06;;;19.68;100.00
53932;BME280;39844;52.496;13.482;2023-06-26T01:14:23;101313.63;;;19.69;100.00
53932;BME280;39844;52.496;13.482;2023-06-26T01:16:49;101304.72;;;19.70;100.00
53932;BME280;39844;52.496;13.482;2023-06-26T01:19:20;101306.44;;;19.71;100.00
53932;BME280;39844;52.496;13.482;2023-06-26T01:21:48;101307.31;;;19.71;100.00
53932;BME280;39844;52.496;13.482;2023-06-26T01:24:17;101306.34;;;19.74;100.00
53932;BME280;39844;52.496;13.482;2023-06-26T01:26:43;101308.03;;;19.76;100.00
53932;BME280;39844;52.496;13.482;2023-06-26T01:29:09;101303.53;;;19.78;100.00
53932;BME280;39844;52.496;13.482;2023-06-26T01:31:35;101298.31;;;19.75;100.00
53932;BME280;39844;52.496;13.482;2023-06-26T01:34:01;101301.91;;;19.74;100.00
53932;BME280;39844;52.496;13.482;2023-06-26T01:36:27;101298.41;;;19.72;100.00
53932;BME280;39844;52.496;13.482;2023-06-26T01:38:52;101298.41;;;19.72;100.00
53932;BME280;39844;52.496;13.482;2023-06-26T01:41:19;101289.59;;;19.70;100.00
53932;BME280;39844;52.496;13.482;2023-06-26T01:44:29;101287.91;;;19.68;100.00
53932;BME280;39844;52.496;13.482;2023-06-26T01:47:04;101280.91;;;19.65;100.00
53932;BME280;39844;52.496;13.482;2023-06-26T01:54:49;101285.59;;;19.57;100.00
53932;BME280;39844;52.496;13.482;2023-06-26T01:57:18;101282.00;;;19.58;100.00
53932;BME280;39844;52.496;13.482;2023-06-26T01:59:43;101280.25;;;19.57;100.00
53932;BME280;39844;52.496;13.482;2023-06-26T02:02:12;101276.72;;;19.57;100.00
53932;BME280;39844;52.496;13.482;2023-06-26T02:04:38;101283.84;;;19.56;100.00
53932;BME280;39844;52.496;13.482;2023-06-26T02:07:04;101281.16;;;19.56;100.00
53932;BME280;39844;52.496;13.482;2023-06-26T02:09:29;101271.47;;;19.53;100.00
53932;BME280;39844;52.496;13.482;2023-06-26T02:11:55;101275.03;;;19.54;100.00
53932;BME280;39844;52.496;13.482;2023-06-26T02:14:21;101274.22;;;19.52;100.00
53932;BME280;39844;52.496;13.482;2023-06-26T02:16:49;101269.78;;;19.51;100.00
53932;BME280;39844;52.496;13.482;2023-06-26T02:19:17;101278.66;;;19.51;100.00
53932;BME280;39844;52.496;13.482;2023-06-26T02:21:45;101271.56;;;19.50;100.00
53932;BME280;39844;52.496;13.482;2023-06-26T02:24:11;101274.31;;;19.49;100.00
53932;BME280;39844;52.496;13.482;2023-06-26T02:26:37;101268.19;;;19.45;100.00
53932;BME280;39844;52.496;13.482;2023-06-26T02:29:02;101268.25;;;19.44;100.00
53932;BME280;39844;52.496;13.482;2023-06-26T02:31:30;101276.28;;;19.42;100.00
53932;BME280;39844;52.496;13.482;2023-06-26T02:33:56;101270.19;;;19.39;100.00
53932;BME280;39844;52.496;13.482;2023-06-26T02:36:26;101275.53;;;19.37;100.00
53932;BME280;39844;52.496;13.482;2023-06-26T02:38:55;101280.03;;;19.37;100.00
53932;BME280;39844;52.496;13.482;2023-06-26T02:41:20;101277.31;;;19.38;100.00
53932;BME280;39844;52.496;13.482;2023-06-26T02:43:46;101269.25;;;19.40;100.00
53932;BME280;39844;52.496;13.482;2023-06-26T02:46:11;101276.41;;;19.38;100.00
53932;BME280;39844;52.496;13.482;2023-06-26T02:48:36;101269.38;;;19.37;100.00
53932;BME280;39844;52.496;13.482;2023-06-26T02:51:02;101269.38;;;19.37;100.00
53932;BME280;39844;52.496;13.482;2023-06-26T02:53:27;101271.13;;;19.36;100.00
53932;BME280;39844;52.496;13.482;2023-06-26T02:55:52;101272.03;;;19.35;100.00
53932;BME280;39844;52.496;13.482;2023-06-26T02:58:17;101265.00;;;19.33;100.00
53932;BME280;39844;52.496;13.482;2023-06-26T03:00:43;101264.25;;;19.29;100.00
53932;BME280;39844;52.496;13.482;2023-06-26T03:03:09;101265.16;;;19.28;100.00
53932;BME280;39844;52.496;13.482;2023-06-26T03:05:34;101259.91;;;19.27;100.00
53932;BME280;39844;52.496;13.482;2023-06-26T03:07:59;101259.91;;;19.27;100.00
53932;BME280;39844;52.496;13.482;2023-06-26T03:10:25;101250.22;;;19.24;100.00
53932;BME280;39844;52.496;13.482;2023-06-26T03:12:50;101252.00;;;19.24;100.00
53932;BME280;39844;52.496;13.482;2023-06-26T03:15:15;101257.31;;;19.24;100.00
53932;BME280;39844;52.496;13.482;2023-06-26T03:17:41;101246.75;;;19.21;100.00
53932;BME280;39844;52.496;13.482;2023-06-26T03:20:06;101250.34;;;19.20;100.00
53932;BME280;39844;52.496;13.482;2023-06-26T03:22:33;101254.75;;;19.21;100.00
53932;BME280;39844;52.496;13.482;2023-06-26T03:24:58;101252.09;;;19.21;100.00
53932;BME280;39844;52.496;13.482;2023-06-26T03:27:23;101254.75;;;19.21;100.00
53932;BME280;39844;52.496;13.482;2023-06-26T03:29:51;101254.81;;;19.19;100.00
53932;BME280;39844;52.496;13.482;2023-06-26T03:32:16;101252.09;;;19.21;100.00
53932;BME280;39844;52.496;13.482;2023-06-26T03:34:41;101244.09;;;19.21;100.00
53932;BME280;39844;52.496;13.482;2023-06-26T03:37:07;101252.91;;;19.23;100.00
53932;BME280;39844;52.496;13.482;2023-06-26T03:39:32;101243.19;;;19.22;100.00
53932;BME280;39844;52.496;13.482;2023-06-26T03:41:57;101240.47;;;19.23;100.00
53932;BME280;39844;52.496;13.482;2023-06-26T03:44:22;101234.25;;;19.24;100.00
53932;BME280;39844;52.496;13.482;2023-06-26T03:46:48;101238.59;;;19.27;100.00
53932;BME280;39844;52.496;13.482;2023-06-26T03:49:13;101238.59;;;19.27;100.00
53932;BME280;39844;52.496;13.482;2023-06-26T03:51:38;101234.00;;;19.32;100.00
53932;BME280;39844;52.496;13.482;2023-06-26T03:54:04;101225.03;;;19.34;100.00
53932;BME280;39844;52.496;13.482;2023-06-26T03:56:29;101231.16;;;19.38;100.00
53932;BME280;39844;52.496;13.482;2023-06-26T03:58:54;101230.19;;;19.40;100.00
53932;BME280;39844;52.496;13.482;2023-06-26T04:01:20;101233.63;;;19.44;100.00
53932;BME280;39844;52.496;13.482;2023-06-26T04:03:45;101237.03;;;19.49;100.00
53932;BME280;39844;52.496;13.482;2023-06-26T04:06:10;101240.34;;;19.55;100.00
53932;BME280;39844;52.496;13.482;2023-06-26T04:08:35;101234.81;;;19.62;100.00
53932;BME280;39844;52.496;13.482;2023-06-26T04:11:01;101231.00;;;19.70;100.00
53932;BME280;39844;52.496;13.482;2023-06-26T04:13:26;101233.34;;;19.79;100.00
53932;BME280;39844;52.496;13.482;2023-06-26T04:15:51;101233.97;;;19.87;100.00
53932;BME280;39844;52.496;13.482;2023-06-26T04:18:17;101235.47;;;19.94;100.00
53932;BME280;39844;52.496;13.482;2023-06-26T04:21:09;101235.16;;;20.03;100.00
53932;BME280;39844;52.496;13.482;2023-06-26T04:23:34;101233.97;;;20.12;100.00
53932;BME280;39844;52.496;13.482;2023-06-26T04:25:59;101228.34;;;20.21;100.00
53932;BME280;39844;52.496;13.482;2023-06-26T04:28:25;101228.13;;;20.27;100.00
53932;BME280;39844;52.496;13.482;2023-06-26T04:30:50;101231.41;;;20.35;100.00
53932;BME280;39844;52.496;13.482;2023-06-26T04:33:16;101228.56;;;20.40;99.48
53932;BME280;39844;52.496;13.482;2023-06-26T04:35:41;101225.84;;;20.41;97.85
53932;BME280;39844;52.496;13.482;2023-06-26T04:38:06;101234.69;;;20.42;97.29
53932;BME280;39844;52.496;13.482;2023-06-26T04:40:32;101236.47;;;20.43;97.21
53932;BME280;39844;52.496;13.482;2023-06-26T04:42:57;101226.50;;;20.48;97.20
53932;BME280;39844;52.496;13.482;2023-06-26T04:45:22;101230.78;;;20.52;97.50
53932;BME280;39844;52.496;13.482;2023-06-26T04:47:47;101231.47;;;20.57;97.36
53932;BME280;39844;52.496;13.482;2023-06-26T04:50:15;101234.72;;;20.65;97.77
53932;BME280;39844;52.496;13.482;2023-06-26T04:52:40;101223.94;;;20.68;96.92
53932;BME280;39844;52.496;13.482;2023-06-26T04:55:06;101222.94;;;20.72;97.54
53932;BME280;39844;52.496;13.482;2023-06-26T04:57:31;101223.63;;;20.77;96.65
53932;BME280;39844;52.496;13.482;2023-06-26T04:59:57;101226.22;;;20.78;95.08
53932;BME280;39844;52.496;13.482;2023-06-26T05:02:22;101223.47;;;20.80;95.77
53932;BME280;39844;52.496;13.482;2023-06-26T05:04:47;101217.13;;;20.84;95.71
53932;BME280;39844;52.496;13.482;2023-06-26T05:07:12;101220.47;;;20.89;96.04
53932;BME280;39844;52.496;13.482;2023-06-26T05:09:38;101223.84;;;20.94;95.33
53932;BME280;39844;52.496;13.482;2023-06-26T05:12:03;101218.19;;;21.02;95.80
53932;BME280;39844;52.496;13.482;2023-06-26T05:14:29;101215.31;;;21.08;95.37
53932;BME280;39844;52.496;13.482;2023-06-26T05:16:54;101217.69;;;21.15;92.29
53932;BME280;39844;52.496;13.482;2023-06-26T05:19:20;101216.53;;;21.22;90.57
53932;BME280;39844;52.496;13.482;2023-06-26T05:21:45;101219.63;;;21.33;89.12
53932;BME280;39844;52.496;13.482;2023-06-26T05:24:12;101214.72;;;21.45;90.57
53932;BME280;39844;52.496;13.482;2023-06-26T05:26:38;101208.06;;;21.55;88.65
53932;BME280;39844;52.496;13.482;2023-06-26T05:29:03;101213.88;;;21.64;87.30
53932;BME280;39844;52.496;13.482;2023-06-26T05:31:31;101207.22;;;21.74;86.85
53932;BME280;39844;52.496;13.482;2023-06-26T05:33:57;101206.91;;;21.82;86.42
53932;BME280;39844;52.496;13.482;2023-06-26T05:36:26;101201.34;;;21.88;85.71
53932;BME280;39844;52.496;13.482;2023-06-26T05:38:51;101193.13;;;21.92;84.78
53932;BME280;39844;52.496;13.482;2023-06-26T05:41:17;101197.31;;;21.98;84.81
53932;BME280;39844;52.496;13.482;2023-06-26T05:43:44;101182.84;;;22.03;84.66
53932;BME280;39844;52.496;13.482;2023-06-26T05:46:10;101181.88;;;22.04;83.44
53932;BME280;39844;52.496;13.482;2023-06-26T05:48:35;101181.16;;;22.01;82.79
53932;BME280;39844;52.496;13.482;2023-06-26T05:51:01;101177.69;;;21.99;82.26
53932;BME280;39844;52.496;13.482;2023-06-26T05:53:26;101173.41;;;21.95;83.06
53932;BME280;39844;52.496;13.482;2023-06-26T05:55:52;101172.81;;;21.88;83.99
53932;BME280;39844;52.496;13.482;2023-06-26T05:58:17;101165.78;;;21.86;84.67
53932;BME280;39844;52.496;13.482;2023-06-26T06:00:45;101178.38;;;21.82;83.81
53932;BME280;39844;52.496;13.482;2023-06-26T06:03:10;101181.16;;;21.79;83.79
53932;BME280;39844;52.496;13.482;2023-06-26T06:05:36;101179.38;;;21.80;84.27
53932;BME280;39844;52.496;13.482;2023-06-26T06:08:01;101176.66;;;21.81;84.55
53932;BME280;39844;52.496;13.482;2023-06-26T06:10:26;101163.22;;;21.83;85.04
53932;BME280;39844;52.496;13.482;2023-06-26T06:12:51;101164.00;;;21.85;85.17
53932;BME280;39844;52.496;13.482;2023-06-26T06:15:17;101160.44;;;21.86;84.34
53932;BME280;39844;52.496;13.482;2023-06-26T06:17:42;101165.72;;;21.87;83.73
53932;BME280;39844;52.496;13.482;2023-06-26T06:20:08;101160.31;;;21.89;82.69
53932;BME280;39844;52.496;13.482;2023-06-26T06:22:33;101167.25;;;21.93;81.85
53932;BME280;39844;52.496;13.482;2023-06-26T06:24:58;101167.00;;;21.99;82.64
53932;BME280;39844;52.496;13.482;2023-06-26T06:27:24;101163.22;;;22.03;83.01
53932;BME280;39844;52.496;13.482;2023-06-26T06:29:49;101165.69;;;22.08;82.09
53932;BME280;39844;52.496;13.482;2023-06-26T06:32:14;101154.00;;;22.10;80.88
53932;BME280;39844;52.496;13.482;2023-06-26T06:34:40;101165.44;;;22.14;79.01
53932;BME280;39844;52.496;13.482;2023-06-26T06:37:05;101168.81;;;22.17;78.34
53932;BME280;39844;52.496;13.482;2023-06-26T06:39:30;101168.56;;;22.23;77.60
53932;BME280;39844;52.496;13.482;2023-06-26T06:41:55;101157.66;;;22.28;77.19
53932;BME280;39844;52.496;13.482;2023-06-26T06:44:21;101159.19;;;22.33;76.68
53932;BME280;39844;52.496;13.482;2023-06-26T06:46:46;101153.56;;;22.39;76.83
53932;BME280;39844;52.496;13.482;2023-06-26T06:49:11;101157.81;;;22.43;75.99
53932;BME280;39844;52.496;13.482;2023-06-26T06:51:37;101157.69;;;22.46;75.66
53932;BME280;39844;52.496;13.482;2023-06-26T06:54:02;101156.53;;;22.52;75.66
53932;BME280;39844;52.496;13.482;2023-06-26T06:56:27;101149.16;;;22.57;75.87
53932;BME280;39844;52.496;13.482;2023-06-26T06:58:52;101151.63;;;22.61;75.17
53932;BME280;39844;52.496;13.482;2023-06-26T07:01:18;101156.88;;;22.64;75.11
53932;BME280;39844;52.496;13.482;2023-06-26T07:03:43;101145.06;;;22.69;74.49
53932;BME280;39844;52.496;13.482;2023-06-26T07:06:08;101144.78;;;22.75;74.64
53932;BME280;39844;52.496;13.482;2023-06-26T07:08:34;101143.69;;;22.79;74.31
53932;BME280;39844;52.496;13.482;2023-06-26T07:10:59;101143.56;;;22.82;73.98
53932;BME280;39844;52.496;13.482;2023-06-26T07:13:24;101138.06;;;22.85;73.22
53932;BME280;39844;52.496;13.482;2023-06-26T07:15:50;101142.97;;;22.94;73.37
53932;BME280;39844;52.496;13.482;2023-06-26T07:18:15;101136.53;;;22.98;72.26
53932;BME280;39844;52.496;13.482;2023-06-26T07:20:41;101136.31;;;23.02;71.28
53932;BME280;39844;52.496;13.482;2023-06-26T07:23:06;101131.44;;;23.10;71.36
53932;BME280;39844;52.496;13.482;2023-06-26T07:25:32;101132.97;;;23.16;70.71
53932;BME280;39844;52.496;13.482;2023-06-26T07:27:57;101135.25;;;23.23;69.44
53932;BME280;39844;52.496;13.482;2023-06-26T07:30:22;101137.56;;;23.31;68.95
53932;BME280;39844;52.496;13.482;2023-06-26T07:32:47;101136.38;;;23.37;67.21
53932;BME280;39844;52.496;13.482;2023-06-26T07:38:15;101126.59;;;23.54;66.34
53932;BME280;39844;52.496;13.482;2023-06-26T07:40:41;101118.97;;;23.62;65.93
53932;BME280;39844;52.496;13.482;2023-06-26T07:43:06;101121.22;;;23.71;66.29
53932;BME280;39844;52.496;13.482;2023-06-26T07:45:31;101126.22;;;23.77;65.64
53932;BME280;39844;52.496;13.482;2023-06-26T07:47:57;101117.88;;;23.83;65.53
53932;BME280;39844;52.496;13.482;2023-06-26T07:50:22;101121.28;;;23.87;64.20
53932;BME280;39844;52.496;13.482;2023-06-26T07:52:47;101115.66;;;23.92;64.02
53932;BME280;39844;52.496;13.482;2023-06-26T07:55:12;101118.09;;;23.96;64.37
53932;BME280;39844;52.496;13.482;2023-06-26T07:57:38;101111.72;;;23.99;63.38
53932;BME280;39844;52.496;13.482;2023-06-26T08:00:03;101115.00;;;24.04;61.36
53932;BME280;39844;52.496;13.482;2023-06-26T08:02:29;101104.78;;;24.12;61.95
53932;BME280;39844;52.496;13.482;2023-06-26T08:04:54;101106.09;;;24.20;61.29
53932;BME280;39844;52.496;13.482;2023-06-26T08:07:19;101102.91;;;24.29;60.79
53932;BME280;39844;52.496;13.482;2023-06-26T08:09:45;101106.13;;;24.36;61.49
53932;BME280;39844;52.496;13.482;2023-06-26T08:12:10;101096.19;;;24.38;60.90
53932;BME280;39844;52.496;13.482;2023-06-26T08:14:35;101094.28;;;24.40;59.96
53932;BME280;39844;52.496;13.482;2023-06-26T08:17:01;101093.06;;;24.45;58.62
53932;BME280;39844;52.496;13.482;2023-06-26T08:19:26;101094.53;;;24.51;58.89
53932;BME280;39844;52.496;13.482;2023-06-26T08:21:51;101089.97;;;24.53;58.09
53932;BME280;39844;52.496;13.482;2023-06-26T08:24:17;101088.84;;;24.57;57.37
53932;BME280;39844;52.496;13.482;2023-06-26T08:26:42;101091.19;;;24.63;56.58
53932;BME280;39844;52.496;13.482;2023-06-26T08:29:10;101095.25;;;24.70;55.30
53932;BME280;39844;52.496;13.482;2023-06-26T08:31:35;101087.66;;;24.78;54.78
53932;BME280;39844;52.496;13.482;2023-06-26T08:34:03;101088.09;;;24.86;53.93
53932;BME280;39844;52.496;13.482;2023-06-26T08:36:29;101084.97;;;24.94;53.95
53932;BME280;39844;52.496;13.482;2023-06-26T08:38:54;101072.97;;;24.99;53.57
53932;BME280;39844;52.496;13.482;2023-06-26T08:41:20;101078.88;;;25.06;54.77
53932;BME280;39844;52.496;13.482;2023-06-26T08:43:45;101071.47;;;25.09;53.86
53932;BME280;39844;52.496;13.482;2023-06-26T08:46:11;101063.25;;;25.12;53.25
53932;BME280;39844;52.496;13.482;2023-06-26T08:48:37;101075.38;;;25.20;52.87
53932;BME280;39844;52.496;13.482;2023-06-26T08:51:09;101066.88;;;25.27;52.47
53932;BME280;39844;52.496;13.482;2023-06-26T08:53:51;101072.03;;;25.30;50.63
53932;BME280;39844;52.496;13.482;2023-06-26T08:56:19;101068.84;;;25.39;50.73
53932;BME280;39844;52.496;13.482;2023-06-26T08:58:46;101064.75;;;25.48;50.51
53932;BME280;39844;52.496;13.482;2023-06-26T09:01:12;101060.75;;;25.55;51.10
53932;BME280;39844;52.496;13.482;2023-06-26T09:03:37;101062.09;;;25.62;51.69
53932;BME280;39844;52.496;13.482;2023-06-26T09:06:03;101057.88;;;25.72;52.19
53932;BME280;39844;52.496;13.482;2023-06-26T09:08:28;101052.50;;;25.86;51.27
53932;BME280;39844;52.496;13.482;2023-06-26T09:10:54;101040.03;;;25.99;50.01
53932;BME280;39844;52.496;13.482;2023-06-26T09:13:19;101042.16;;;26.22;49.68
53932;BME280;39844;52.496;13.482;2023-06-26T09:15:45;101040.50;;;26.48;49.43
53932;BME280;39844;52.496;13.482;2023-06-26T09:18:11;101034.13;;;26.90;49.52
53932;BME280;39844;52.496;13.482;2023-06-26T09:20:37;101026.13;;;27.42;47.96
53932;BME280;39844;52.496;13.482;2023-06-26T09:23:03;101037.13;;;27.64;46.66
53932;BME280;39844;52.496;13.482;2023-06-26T09:25:29;101040.06;;;27.86;46.98
53932;BME280;39844;52.496;13.482;2023-06-26T09:27:55;101031.34;;;28.08;46.20
53932;BME280;39844;52.496;13.482;2023-06-26T09:30:21;101031.59;;;28.41;45.88
53932;BME280;39844;52.496;13.482;2023-06-26T09:32:46;101030.91;;;28.87;42.75
53932;BME280;39844;52.496;13.482;2023-06-26T09:35:12;101025.50;;;29.45;42.20
53932;BME280;39844;52.496;13.482;2023-06-26T09:37:37;101021.69;;;29.82;39.11
53932;BME280;39844;52.496;13.482;2023-06-26T09:40:03;101024.78;;;30.22;39.50
53932;BME280;39844;52.496;13.482;2023-06-26T09:42:29;101017.84;;;30.62;38.35
53932;BME280;39844;52.496;13.482;2023-06-26T09:44:54;101012.31;;;31.07;38.87
53932;BME280;39844;52.496;13.482;2023-06-26T09:47:20;101011.34;;;31.49;37.88
53932;BME280;39844;52.496;13.482;2023-06-26T09:49:45;101009.75;;;31.67;36.25
53932;BME280;39844;52.496;13.482;2023-06-26T09:52:14;101013.38;;;31.77;36.03
53932;BME280;39844;52.496;13.482;2023-06-26T09:54:40;101010.97;;;32.05;36.69
53932;BME280;39844;52.496;13.482;2023-06-26T09:57:09;100999.63;;;32.39;36.19
53932;BME280;39844;52.496;13.482;2023-06-26T09:59:35;100995.16;;;32.69;35.72
53932;BME280;39844;52.496;13.482;2023-06-26T10:02:01;100993.19;;;33.09;36.40
53932;BME280;39844;52.496;13.482;2023-06-26T10:04:26;100998.31;;;33.31;34.47
53932;BME280;39844;52.496;13.482;2023-06-26T10:06:54;100994.63;;;33.32;33.46
53932;BME280;39844;52.496;13.482;2023-06-26T10:09:22;100988.00;;;33.63;34.37
53932;BME280;39844;52.496;13.482;2023-06-26T10:12:03;100977.59;;;33.86;33.99
53932;BME280;39844;52.496;13.482;2023-06-26T10:14:34;100980.13;;;34.07;33.04
53932;BME280;39844;52.496;13.482;2023-06-26T10:16:59;100968.25;;;34.25;32.92
53932;BME280;39844;52.496;13.482;2023-06-26T10:19:27;100967.84;;;34.48;31.92
53932;BME280;39844;52.496;13.482;2023-06-26T10:21:53;100962.56;;;34.81;31.90
53932;BME280;39844;52.496;13.482;2023-06-26T10:24:19;100967.66;;;35.12;31.54
53932;BME280;39844;52.496;13.482;2023-06-26T10:26:57;100957.34;;;35.49;32.59
53932;BME280;39844;52.496;13.482;2023-06-26T10:29:25;100960.19;;;35.57;32.42
53932;BME280;39844;52.496;13.482;2023-06-26T10:31:53;100956.81;;;35.45;29.76
53932;BME280;39844;52.496;13.482;2023-06-26T10:34:21;100957.06;;;35.09;29.86
53932;BME280;39844;52.496;13.482;2023-06-26T10:36:46;100947.91;;;34.82;30.09
53932;BME280;39844;52.496;13.482;2023-06-26T10:39:11;100945.03;;;34.66;31.41
53932;BME280;39844;52.496;13.482;2023-06-26T10:41:38;100945.03;;;34.84;31.55
53932;BME280;39844;52.496;13.482;2023-06-26T10:44:11;100943.72;;;35.06;31.60
53932;BME280;39844;52.496;13.482;2023-06-26T10:46:55;100939.50;;;35.37;31.31
53932;BME280;39844;52.496;13.482;2023-06-26T10:49:25;100930.72;;;35.51;31.36
53932;BME280;39844;52.496;13.482;2023-06-26T10:51:51;100926.81;;;35.79;31.18
53932;BME280;39844;52.496;13.482;2023-06-26T10:54:18;100922.06;;;36.31;31.76
53932;BME280;39844;52.496;13.482;2023-06-26T10:56:47;100914.50;;;36.83;29.62
53932;BME280;39844;52.496;13.482;2023-06-26T10:59:24;100908.31;;;37.38;29.54
53932;BME280;39844;52.496;13.482;2023-06-26T11:02:00;100905.22;;;37.57;27.27
53932;BME280;39844;52.496;13.482;2023-06-26T11:04:40;100915.69;;;37.21;27.67
53932;BME280;39844;52.496;13.482;2023-06-26T11:07:25;100909.00;;;36.75;26.74
53932;BME280;39844;52.496;13.482;2023-06-26T11:09:58;100906.28;;;36.75;27.47
53932;BME280;39844;52.496;13.482;2023-06-26T11:15:01;100899.41;;;37.44;28.79
53932;BME280;39844;52.496;13.482;2023-06-26T11:17:27;100897.31;;;37.62;28.70
53932;BME280;39844;52.496;13.482;2023-06-26T11:19:52;100901.25;;;37.59;27.78
53932;BME280;39844;52.496;13.482;2023-06-26T11:22:18;100899.75;;;36.92;26.79
53932;BME280;39844;52.496;13.482;2023-06-26T11:24:44;100894.56;;;36.33;27.55
53932;BME280;39844;52.496;13.482;2023-06-26T11:27:09;100889.44;;;36.30;29.05
53932;BME280;39844;52.496;13.482;2023-06-26T11:29:35;100883.06;;;36.21;27.76
53932;BME280;39844;52.496;13.482;2023-06-26T11:32:01;100878.34;;;35.89;28.62
53932;BME280;39844;52.496;13.482;2023-06-26T11:34:29;100869.53;;;36.03;30.16
53932;BME280;39844;52.496;13.482;2023-06-26T11:36:56;100875.06;;;36.28;30.49
53932;BME280;39844;52.496;13.482;2023-06-26T11:39:22;100868.75;;;36.27;29.25
53932;BME280;39844;52.496;13.482;2023-06-26T11:41:47;100868.72;;;36.19;29.73
53932;BME280;39844;52.496;13.482;2023-06-26T11:44:12;100868.56;;;36.37;29.59
53932;BME280;39844;52.496;13.482;2023-06-26T11:46:38;100860.44;;;36.61;29.89
53932;BME280;39844;52.496;13.482;2023-06-26T11:49:04;100856.66;;;36.78;29.15
53932;BME280;39844;52.496;13.482;2023-06-26T11:51:30;100843.97;;;36.45;27.98
53932;BME280;39844;52.496;13.482;2023-06-26T11:53:55;100840.44;;;35.94;27.48
53932;BME280;39844;52.496;13.482;2023-06-26T11:56:21;100839.50;;;35.78;29.77
53932;BME280;39844;52.496;13.482;2023-06-26T11:59:04;100835.94;;;35.85;30.54
53932;BME280;39844;52.496;13.482;2023-06-26T12:03:59;100822.75;;;36.23;32.26
53932;BME280;39844;52.496;13.482;2023-06-26T12:06:25;100813.19;;;36.27;30.42
53932;BME280;39844;52.496;13.482;2023-06-26T12:08:50;100814.41;;;36.40;31.89
53932;BME280;39844;52.496;13.482;2023-06-26T12:11:16;100809.09;;;36.47;31.05
53932;BME280;39844;52.496;13.482;2023-06-26T12:13:42;100810.50;;;36.51;30.86
53932;BME280;39844;52.496;13.482;2023-06-26T12:16:08;100805.72;;;36.53;30.66
53932;BME280;39844;52.496;13.482;2023-06-26T12:18:35;100804.13;;;36.42;29.27
53932;BME280;39844;52.496;13.482;2023-06-26T12:21:00;100794.53;;;36.06;29.21
53932;BME280;39844;52.496;13.482;2023-06-26T12:23:32;100797.63;;;35.61;29.67
53932;BME280;39844;52.496;13.482;2023-06-26T12:25:58;100804.09;;;35.01;30.98
53932;BME280;39844;52.496;13.482;2023-06-26T12:28:23;100795.84;;;34.49;32.19
53932;BME280;39844;52.496;13.482;2023-06-26T12:31:12;100796.09;;;34.20;33.15
53932;BME280;39844;52.496;13.482;2023-06-26T12:33:38;100791.72;;;34.45;31.90
53932;BME280;39844;52.496;13.482;2023-06-26T12:36:03;100784.25;;;34.90;33.21
53932;BME280;39844;52.496;13.482;2023-06-26T12:38:33;100782.72;;;35.22;31.91
53932;BME280;39844;52.496;13.482;2023-06-26T12:40:58;100770.22;;;35.45;32.83
53932;BME280;39844;52.496;13.482;2023-06-26T12:43:26;100775.44;;;35.64;33.05
53932;BME280;39844;52.496;13.482;2023-06-26T12:45:55;100772.75;;;35.38;30.64